Time;durP1;ratioP1;P1;durP2;ratioP2;P2;SDS_P1;SDS_P2;PMS_P1;PMS_P2;Temp;Humidity;BMP_temperature;BMP_pressure;BME280_temperature;BME280_humidity;BME280_pressure;Samples;Min_cycle;Max_cycle;Signal;HPM_P1;HPM_P2
2021/11/06 00:02:24;;;;;;;23.07;8.53;;;7.30;97.30;;;;;;5015898;28;20482;-85
2021/11/06 00:04:50;;;;;;;18.33;8.43;;;7.30;97.30;;;;;;5016431;28;20499;-85
2021/11/06 00:07:15;;;;;;;20.70;8.97;;;7.40;97.30;;;;;;5017108;28;20478;-84
2021/11/06 00:09:41;;;;;;;22.20;8.27;;;7.40;97.30;;;;;;5017078;28;20571;-85
2021/11/06 00:12:07;;;;;;;25.17;7.87;;;7.40;97.30;;;;;;5016112;28;20204;-84
2021/11/06 00:14:34;;;;;;;16.90;6.77;;;7.40;97.30;;;;;;5016273;28;20603;-84
2021/11/06 00:17:00;;;;;;;23.60;8.77;;;7.40;97.30;;;;;;5014633;28;20677;-85
2021/11/06 00:19:26;;;;;;;15.77;6.90;;;7.40;97.30;;;;;;5015771;28;20482;-83
2021/11/06 00:21:52;;;;;;;25.93;7.93;;;7.40;97.30;;;;;;5015915;28;20440;-85
2021/11/06 00:24:19;;;;;;;18.70;7.33;;;7.40;97.30;;;;;;5016944;28;21178;-85
2021/11/06 00:26:49;;;;;;;19.80;7.37;;;7.50;97.30;;;;;;5016502;28;20503;-85
2021/11/06 00:29:18;;;;;;;13.83;6.13;;;7.50;97.30;;;;;;5017077;28;20463;-84
2021/11/06 00:31:44;;;;;;;16.10;5.33;;;7.50;97.30;;;;;;5015880;28;20471;-85
2021/11/06 00:34:11;;;;;;;15.50;5.53;;;7.50;97.30;;;;;;5017646;28;20440;-84
2021/11/06 00:36:36;;;;;;;21.50;7.13;;;7.50;97.30;;;;;;5017763;28;20250;-84
2021/11/06 00:39:03;;;;;;;20.63;7.53;;;7.50;97.30;;;;;;5016586;28;20412;-85
2021/11/06 00:41:28;;;;;;;20.27;7.00;;;7.50;97.30;;;;;;5014952;28;20704;-85
2021/11/06 00:43:54;;;;;;;19.60;6.80;;;7.50;97.30;;;;;;5015172;28;20423;-85
2021/11/06 00:46:19;;;;;;;18.53;7.80;;;7.60;97.30;;;;;;5015438;28;20184;-81
2021/11/06 00:48:45;;;;;;;20.93;7.73;;;7.60;97.30;;;;;;5016182;28;20275;-85
2021/11/06 00:51:10;;;;;;;19.70;6.93;;;7.60;97.30;;;;;;5016867;28;20265;-85
2021/11/06 00:53:36;;;;;;;19.50;7.13;;;7.60;97.30;;;;;;5015303;28;20177;-84
2021/11/06 00:56:01;;;;;;;18.03;8.23;;;7.60;97.30;;;;;;5015637;28;20243;-85
2021/11/06 00:58:27;;;;;;;17.73;6.23;;;7.50;97.30;;;;;;5015424;28;20181;-85
2021/11/06 01:00:52;;;;;;;18.60;6.83;;;7.50;97.30;;;;;;5014601;28;20177;-84
2021/11/06 01:03:18;;;;;;;17.13;7.70;;;7.50;97.30;;;;;;5014574;28;20293;-85
2021/11/06 01:05:43;;;;;;;17.97;6.63;;;7.50;97.30;;;;;;5014481;28;20178;-85
2021/11/06 01:08:09;;;;;;;12.43;5.63;;;7.50;97.30;;;;;;5015288;28;20280;-84
2021/11/06 01:10:35;;;;;;;17.77;6.50;;;7.50;97.30;;;;;;5015750;28;20543;-84
2021/11/06 01:13:01;;;;;;;13.47;6.10;;;7.50;97.30;;;;;;5015658;28;20200;-84
2021/11/06 01:15:26;;;;;;;11.23;5.73;;;7.40;97.30;;;;;;5015390;28;20427;-84
2021/11/06 01:17:52;;;;;;;22.57;6.23;;;7.40;97.30;;;;;;5015521;28;20423;-84
2021/11/06 01:20:18;;;;;;;15.60;6.70;;;7.40;97.30;;;;;;5015275;28;20467;-84
2021/11/06 01:22:44;;;;;;;19.80;7.20;;;7.40;97.30;;;;;;5014089;28;20201;-84
2021/11/06 01:25:10;;;;;;;14.80;5.77;;;7.40;97.30;;;;;;5014148;28;20790;-84
2021/11/06 01:27:37;;;;;;;20.20;7.90;;;7.30;97.30;;;;;;5013664;28;20215;-84
2021/11/06 01:30:06;;;;;;;17.33;6.23;;;7.30;97.30;;;;;;5030607;28;20424;-85
2021/11/06 01:32:32;;;;;;;19.03;7.17;;;7.30;97.30;;;;;;5027982;28;20476;-84
2021/11/06 01:34:57;;;;;;;20.63;7.30;;;7.30;97.30;;;;;;5012154;28;20416;-85
2021/11/06 01:37:23;;;;;;;13.63;6.23;;;7.30;97.30;;;;;;5012133;28;20516;-84
2021/11/06 01:39:48;;;;;;;20.50;7.43;;;7.30;97.30;;;;;;5011587;28;20185;-85
2021/11/06 01:42:14;;;;;;;13.67;6.43;;;7.30;97.30;;;;;;5011283;28;20255;-85
2021/11/06 01:44:40;;;;;;;16.67;6.77;;;7.30;97.30;;;;;;5011813;28;20181;-85
2021/11/06 01:47:06;;;;;;;21.20;8.33;;;7.30;97.30;;;;;;5010656;28;20986;-85
2021/11/06 01:49:32;;;;;;;15.60;6.33;;;7.20;97.30;;;;;;5013093;28;20213;-85
2021/11/06 01:51:58;;;;;;;16.03;7.43;;;7.20;97.30;;;;;;5013039;28;20438;-85
2021/11/06 01:54:26;;;;;;;27.70;8.80;;;7.20;97.30;;;;;;5013562;28;20656;-84
2021/11/06 01:56:54;;;;;;;21.10;7.80;;;7.10;97.30;;;;;;5012437;28;20428;-85
2021/11/06 01:59:20;;;;;;;23.00;7.77;;;7.10;97.30;;;;;;5012420;28;20507;-85
2021/11/06 02:01:46;;;;;;;17.90;7.50;;;7.00;97.30;;;;;;5028070;28;20444;-86
2021/11/06 02:04:12;;;;;;;12.50;6.23;;;7.00;97.30;;;;;;5012367;28;20408;-85
2021/11/06 02:06:38;;;;;;;15.93;7.27;;;6.90;97.30;;;;;;5012118;28;20478;-85
2021/11/06 02:09:03;;;;;;;23.60;7.23;;;6.90;97.30;;;;;;5012576;28;20802;-85
2021/11/06 02:11:29;;;;;;;18.80;7.10;;;6.90;97.30;;;;;;5028101;28;20282;-85
2021/11/06 02:13:55;;;;;;;18.10;7.03;;;6.80;97.30;;;;;;5012513;28;20174;-85
2021/11/06 02:16:20;;;;;;;17.30;6.87;;;6.80;97.30;;;;;;5013445;28;20177;-85
2021/11/06 02:18:47;;;;;;;16.83;7.03;;;6.70;97.30;;;;;;5012224;28;20655;-85
2021/11/06 02:21:14;;;;;;;22.40;6.57;;;6.70;97.30;;;;;;5012374;28;20515;-85
2021/11/06 02:23:42;;;;;;;22.17;8.27;;;6.70;97.30;;;;;;5012879;28;20417;-85
2021/11/06 02:26:10;;;;;;;20.87;7.80;;;6.70;97.30;;;;;;5011110;28;20432;-85
2021/11/06 02:28:35;;;;;;;16.47;8.10;;;6.60;97.30;;;;;;5010809;28;20820;-85
2021/11/06 02:31:01;;;;;;;20.47;7.20;;;6.60;97.30;;;;;;5012042;28;20408;-83
2021/11/06 02:33:27;;;;;;;19.17;7.57;;;6.60;97.30;;;;;;5015020;28;20177;-84
2021/11/06 02:35:53;;;;;;;25.70;7.43;;;6.50;97.30;;;;;;5014084;28;20540;-84
2021/11/06 02:38:19;;;;;;;16.03;7.20;;;6.50;97.30;;;;;;5014259;28;20177;-84
2021/11/06 02:40:45;;;;;;;29.10;7.80;;;6.50;97.30;;;;;;5013043;28;20763;-84
2021/11/06 02:43:10;;;;;;;25.83;6.83;;;6.50;97.30;;;;;;5014128;28;20201;-85
2021/11/06 02:45:36;;;;;;;19.10;8.10;;;6.50;97.30;;;;;;5015035;28;20173;-84
2021/11/06 02:48:04;;;;;;;19.90;8.13;;;6.50;97.30;;;;;;5012730;28;20200;-84
2021/11/06 02:50:30;;;;;;;24.77;7.37;;;6.50;97.30;;;;;;5019586;28;20993;-84
2021/11/06 02:52:56;;;;;;;18.67;6.43;;;6.50;97.30;;;;;;5013031;28;20436;-85
2021/11/06 02:55:22;;;;;;;22.03;7.93;;;6.50;97.30;;;;;;5013654;28;20562;-84
2021/11/06 02:57:47;;;;;;;19.23;6.27;;;6.50;97.30;;;;;;5015542;28;20489;-84
2021/11/06 03:00:13;;;;;;;26.50;7.40;;;6.50;97.30;;;;;;5014257;28;20660;-84
2021/11/06 03:02:39;;;;;;;21.27;7.13;;;6.50;97.30;;;;;;5030076;28;20279;-85
2021/11/06 03:05:06;;;;;;;22.60;7.17;;;6.50;97.30;;;;;;5014510;28;20404;-84
2021/11/06 03:07:32;;;;;;;20.13;6.77;;;6.50;97.30;;;;;;5029473;28;20185;-85
2021/11/06 03:09:57;;;;;;;18.27;7.47;;;6.50;97.30;;;;;;5012642;28;20470;-85
2021/11/06 03:12:23;;;;;;;18.23;7.63;;;6.50;97.30;;;;;;5029166;28;20293;-84
2021/11/06 03:14:49;;;;;;;18.90;7.20;;;6.50;97.30;;;;;;5013423;28;20205;-85
2021/11/06 03:17:14;;;;;;;35.60;7.20;;;6.50;97.30;;;;;;5013719;28;20958;-85
2021/11/06 03:19:40;;;;;;;19.00;8.17;;;6.50;97.30;;;;;;5014333;28;20177;-85
2021/11/06 03:22:06;;;;;;;23.60;7.63;;;6.50;97.30;;;;;;5029819;28;20247;-85
2021/11/06 03:24:32;;;;;;;20.50;7.83;;;6.50;97.30;;;;;;5013363;28;20177;-85
2021/11/06 03:26:58;;;;;;;17.90;6.70;;;6.50;97.30;;;;;;5030028;28;20421;-85
2021/11/06 03:29:23;;;;;;;18.00;7.43;;;6.50;97.30;;;;;;5028776;28;20451;-85
2021/11/06 03:31:49;;;;;;;17.20;7.37;;;6.50;97.30;;;;;;5012066;28;20591;-84
2021/11/06 03:34:15;;;;;;;27.03;8.27;;;6.50;97.30;;;;;;5012360;28;20257;-84
2021/11/06 03:36:41;;;;;;;19.90;6.53;;;6.60;97.30;;;;;;5013087;28;20255;-84
2021/11/06 03:39:07;;;;;;;24.07;8.10;;;6.60;97.30;;;;;;5030770;28;20181;-84
2021/11/06 03:41:32;;;;;;;18.13;6.80;;;6.60;97.30;;;;;;5013739;28;20436;-84
2021/11/06 03:43:58;;;;;;;20.83;8.60;;;6.70;97.30;;;;;;5013409;28;20200;-85
2021/11/06 03:46:24;;;;;;;29.17;9.43;;;6.80;97.30;;;;;;5013107;28;20193;-84
2021/11/06 03:48:49;;;;;;;19.13;7.70;;;6.80;97.30;;;;;;5013068;28;20233;-84
2021/11/06 03:51:14;;;;;;;15.33;7.37;;;6.80;97.30;;;;;;5030726;28;20878;-85
2021/11/06 03:53:40;;;;;;;24.27;9.10;;;6.90;97.30;;;;;;5016954;28;20173;-85
2021/11/06 03:56:06;;;;;;;16.30;6.77;;;6.90;97.30;;;;;;5016398;28;20177;-85
2021/11/06 03:58:31;;;;;;;19.87;7.70;;;7.00;97.30;;;;;;5016389;28;20982;-84
2021/11/06 04:00:57;;;;;;;19.63;7.80;;;7.00;97.30;;;;;;5017693;28;20262;-84
2021/11/06 04:03:23;;;;;;;18.83;7.67;;;7.00;97.30;;;;;;5016993;28;20290;-85
2021/11/06 04:05:48;;;;;;;21.17;7.27;;;7.00;97.30;;;;;;5016429;28;20707;-85
2021/11/06 04:08:14;;;;;;;25.87;9.10;;;7.10;97.30;;;;;;5016665;28;20205;-85
2021/11/06 04:10:39;;;;;;;21.57;7.43;;;7.10;97.30;;;;;;5032206;28;20227;-85
2021/11/06 04:13:05;;;;;;;17.60;7.33;;;7.10;97.30;;;;;;5015571;28;20698;-85
2021/11/06 04:15:30;;;;;;;15.47;6.50;;;7.10;97.30;;;;;;5016024;28;20181;-85
2021/11/06 04:17:56;;;;;;;18.80;7.17;;;7.20;97.30;;;;;;5015463;28;20199;-84
2021/11/06 04:20:21;;;;;;;20.90;7.93;;;7.20;97.30;;;;;;5016326;28;20181;-85
2021/11/06 04:22:50;;;;;;;18.63;7.30;;;7.20;97.30;;;;;;5018411;28;20934;-84
2021/11/06 04:25:16;;;;;;;19.77;7.53;;;7.20;97.30;;;;;;5016664;28;20181;-84
2021/11/06 04:27:41;;;;;;;27.57;8.83;;;7.20;97.30;;;;;;5015849;28;20421;-83
2021/11/06 04:30:09;;;;;;;19.40;7.50;;;7.20;97.30;;;;;;5032590;28;20553;-84
2021/11/06 04:32:34;;;;;;;20.07;7.67;;;7.20;97.30;;;;;;5015058;28;20611;-84
2021/11/06 04:35:00;;;;;;;22.47;8.07;;;7.20;97.30;;;;;;5014996;28;20416;-84
2021/11/06 04:37:25;;;;;;;20.33;7.60;;;7.20;97.30;;;;;;5016615;28;20763;-84
2021/11/06 04:39:51;;;;;;;18.80;7.53;;;7.20;97.30;;;;;;5016355;28;20232;-85
2021/11/06 04:42:16;;;;;;;20.73;8.27;;;7.20;97.30;;;;;;5032482;28;20209;-84
2021/11/06 04:44:42;;;;;;;19.83;7.23;;;7.20;97.30;;;;;;5016595;28;20264;-85
2021/11/06 04:47:08;;;;;;;18.80;7.23;;;7.20;97.30;;;;;;5025421;28;20640;-85
2021/11/06 04:49:33;;;;;;;18.90;6.50;;;7.20;97.30;;;;;;5015514;28;20212;-84
2021/11/06 04:51:59;;;;;;;18.50;6.83;;;7.20;97.30;;;;;;5015853;28;20192;-84
2021/11/06 04:54:25;;;;;;;22.70;7.27;;;7.20;97.30;;;;;;5014714;28;20594;-84
2021/11/06 04:56:50;;;;;;;24.90;8.30;;;7.10;97.30;;;;;;5014642;28;20185;-84
2021/11/06 04:59:17;;;;;;;16.47;6.77;;;7.10;97.30;;;;;;5014656;28;20173;-85
2021/11/06 05:01:42;;;;;;;19.57;7.27;;;7.10;97.30;;;;;;5030923;28;20204;-84
2021/11/06 05:04:08;;;;;;;20.43;9.00;;;7.10;97.30;;;;;;5015930;28;20416;-84
2021/11/06 05:06:34;;;;;;;13.17;5.70;;;7.10;97.30;;;;;;5016254;28;20205;-84
2021/11/06 05:08:59;;;;;;;22.47;6.97;;;7.10;97.30;;;;;;5016543;28;20193;-84
2021/11/06 05:11:25;;;;;;;23.27;7.60;;;7.10;97.30;;;;;;5015175;28;20702;-85
2021/11/06 05:13:51;;;;;;;29.67;7.67;;;7.10;97.30;;;;;;5014910;28;20188;-85
2021/11/06 05:16:16;;;;;;;22.37;8.60;;;7.10;97.30;;;;;;5015602;28;20251;-85
2021/11/06 05:18:42;;;;;;;18.70;7.00;;;7.10;97.30;;;;;;5015584;28;20181;-84
2021/11/06 05:21:08;;;;;;;20.70;8.00;;;7.10;97.30;;;;;;5015452;28;20201;-85
2021/11/06 05:23:33;;;;;;;21.30;8.33;;;7.10;97.30;;;;;;5015238;28;20424;-85
2021/11/06 05:25:59;;;;;;;15.33;6.77;;;7.10;97.30;;;;;;5015584;28;20177;-85
2021/11/06 05:28:25;;;;;;;18.90;7.20;;;7.10;97.30;;;;;;5015388;28;20204;-84
2021/11/06 05:30:50;;;;;;;19.60;7.80;;;7.10;97.30;;;;;;5014776;28;20188;-84
2021/11/06 05:33:16;;;;;;;19.40;7.67;;;7.10;97.30;;;;;;5014885;28;20367;-85
2021/11/06 05:35:41;;;;;;;17.50;7.17;;;7.10;97.30;;;;;;5014782;28;20632;-85
2021/11/06 05:38:07;;;;;;;24.07;8.73;;;7.10;97.30;;;;;;5013704;28;20315;-85
2021/11/06 05:40:32;;;;;;;22.83;8.70;;;7.10;97.30;;;;;;5015068;28;20188;-84
2021/11/06 05:42:58;;;;;;;15.73;7.07;;;7.20;97.30;;;;;;5013875;28;20197;-84
2021/11/06 05:45:25;;;;;;;22.53;6.40;;;7.20;97.30;;;;;;5015206;28;20204;-84
2021/11/06 05:47:50;;;;;;;20.10;7.37;;;7.20;97.30;;;;;;5015318;28;20173;-84
2021/11/06 05:50:17;;;;;;;16.50;7.43;;;7.20;97.30;;;;;;5016292;28;20878;-84
2021/11/06 05:52:43;;;;;;;19.53;7.87;;;7.20;97.30;;;;;;5014127;28;20220;-84
2021/11/06 05:55:13;;;;;;;22.07;7.67;;;7.20;97.30;;;;;;5014572;28;20424;-85
2021/11/06 05:57:39;;;;;;;17.03;8.00;;;7.20;97.30;;;;;;5013821;28;20499;-84
2021/11/06 06:00:11;;;;;;;21.23;8.30;;;7.30;97.30;;;;;;5013612;28;20861;-84
2021/11/06 06:02:37;;;;;;;17.73;7.87;;;7.30;97.30;;;;;;5014128;28;20283;-85
2021/11/06 06:05:03;;;;;;;18.97;8.30;;;7.30;97.30;;;;;;5013822;28;20427;-85
2021/11/06 06:07:30;;;;;;;19.60;7.87;;;7.30;97.30;;;;;;5012826;28;20514;-85
2021/11/06 06:09:58;;;;;;;26.80;8.03;;;7.30;97.30;;;;;;5013573;28;20858;-85
2021/11/06 06:12:24;;;;;;;20.30;7.97;;;7.30;97.30;;;;;;5012496;28;20953;-85
2021/11/06 06:14:49;;;;;;;22.97;8.17;;;7.30;97.30;;;;;;5012983;28;20408;-85
2021/11/06 06:17:15;;;;;;;18.43;7.90;;;7.30;97.30;;;;;;5012291;28;20236;-85
2021/11/06 06:19:40;;;;;;;19.80;9.17;;;7.30;97.30;;;;;;5011229;28;20177;-85
2021/11/06 06:22:06;;;;;;;19.83;8.77;;;7.30;97.30;;;;;;5010943;28;20687;-84
2021/11/06 06:24:31;;;;;;;24.70;9.03;;;7.30;97.30;;;;;;5011741;28;20260;-85
2021/11/06 06:26:57;;;;;;;24.10;9.47;;;7.30;97.30;;;;;;5011471;28;20709;-85
2021/11/06 06:29:22;;;;;;;18.93;7.90;;;7.30;97.30;;;;;;5012582;28;20258;-85
2021/11/06 06:31:48;;;;;;;26.50;9.47;;;7.40;97.30;;;;;;5012458;28;20228;-85
2021/11/06 06:34:13;;;;;;;20.90;7.93;;;7.40;97.30;;;;;;5011628;28;20180;-85
2021/11/06 06:36:39;;;;;;;22.93;8.60;;;7.40;97.30;;;;;;5014094;28;20177;-84
2021/11/06 06:39:04;;;;;;;21.60;8.47;;;7.40;97.30;;;;;;5014645;28;20271;-84
2021/11/06 06:41:30;;;;;;;25.73;10.20;;;7.40;97.30;;;;;;5014428;28;20197;-83
2021/11/06 06:43:56;;;;;;;24.47;8.63;;;7.40;97.30;;;;;;5014573;28;20261;-82
2021/11/06 06:46:22;;;;;;;20.10;9.20;;;7.40;97.30;;;;;;5014026;28;20420;-84
2021/11/06 06:48:47;;;;;;;18.20;8.37;;;7.40;97.30;;;;;;5014166;28;20491;-84
2021/11/06 06:51:15;;;;;;;22.17;8.63;;;7.50;97.30;;;;;;5014424;28;20180;-85
2021/11/06 06:53:41;;;;;;;16.63;7.20;;;7.50;97.30;;;;;;5014111;28;20173;-85
2021/11/06 06:56:07;;;;;;;23.20;8.70;;;7.50;97.30;;;;;;5013355;28;21001;-81
2021/11/06 06:58:33;;;;;;;22.43;7.90;;;7.50;97.30;;;;;;5014112;28;20412;-84
2021/11/06 07:00:59;;;;;;;23.60;8.90;;;7.50;97.30;;;;;;5013138;28;20475;-84
2021/11/06 07:03:24;;;;;;;20.63;7.87;;;7.50;97.30;;;;;;5012587;28;20247;-84
2021/11/06 07:05:50;;;;;;;25.23;8.90;;;7.60;97.30;;;;;;5012953;28;20184;-83
2021/11/06 07:08:20;;;;;;;20.83;8.53;;;7.60;97.30;;;;;;5013445;28;20197;-84
2021/11/06 07:10:53;;;;;;;21.83;8.67;;;7.60;97.30;;;;;;5013727;28;20238;-84
2021/11/06 07:13:20;;;;;;;21.97;8.70;;;7.60;97.30;;;;;;5013876;28;20493;-84
2021/11/06 07:15:47;;;;;;;24.83;9.30;;;7.70;97.30;;;;;;5030164;28;20412;-84
2021/11/06 07:18:13;;;;;;;19.50;8.33;;;7.70;97.30;;;;;;5013672;28;20416;-82
2021/11/06 07:20:38;;;;;;;21.37;8.53;;;7.70;97.30;;;;;;5013002;28;20420;-82
2021/11/06 07:23:04;;;;;;;20.97;7.90;;;7.80;97.30;;;;;;5012760;28;20498;-83
2021/11/06 07:25:29;;;;;;;22.30;8.70;;;7.80;97.30;;;;;;5014531;28;20192;-83
2021/11/06 07:27:55;;;;;;;18.43;8.23;;;7.90;97.30;;;;;;5016754;28;20169;-83
2021/11/06 07:30:23;;;;;;;24.47;8.90;;;7.90;97.30;;;;;;5018142;28;20176;-84
2021/11/06 07:32:49;;;;;;;21.20;8.30;;;7.90;97.30;;;;;;5017582;28;20228;-84
2021/11/06 07:35:18;;;;;;;23.93;11.07;;;8.00;97.30;;;;;;5018099;28;20503;-85
2021/11/06 07:37:43;;;;;;;22.33;9.00;;;8.00;97.30;;;;;;5017122;28;20443;-85
2021/11/06 07:40:12;;;;;;;19.10;9.67;;;8.00;97.30;;;;;;5016856;28;20411;-84
2021/11/06 07:42:39;;;;;;;20.60;9.70;;;8.00;97.30;;;;;;5033101;28;20219;-84
2021/11/06 07:45:06;;;;;;;20.07;8.37;;;8.00;97.30;;;;;;5016811;28;20418;-84
2021/11/06 07:47:31;;;;;;;25.20;9.90;;;8.10;97.30;;;;;;5016759;28;20408;-84
2021/11/06 07:49:57;;;;;;;23.00;9.30;;;8.10;97.30;;;;;;5017643;28;20470;-84
2021/11/06 07:52:23;;;;;;;23.17;10.50;;;8.10;97.30;;;;;;5014793;28;20193;-84
2021/11/06 07:54:48;;;;;;;21.77;9.33;;;8.20;97.30;;;;;;5015173;28;20177;-85
2021/11/06 07:57:14;;;;;;;26.43;9.47;;;8.20;97.30;;;;;;5030148;28;20169;-84
2021/11/06 07:59:39;;;;;;;15.77;7.37;;;8.30;97.30;;;;;;5013884;28;20177;-85
2021/11/06 08:02:05;;;;;;;19.83;7.93;;;8.30;97.30;;;;;;5014966;28;20646;-85
2021/11/06 08:04:31;;;;;;;26.03;8.57;;;8.40;97.30;;;;;;5016223;28;20181;-84
2021/11/06 08:06:56;;;;;;;21.47;8.30;;;8.50;97.30;;;;;;5016741;28;20588;-84
2021/11/06 08:09:22;;;;;;;21.10;8.77;;;8.50;97.30;;;;;;5017486;28;20208;-84
2021/11/06 08:11:47;;;;;;;21.33;9.10;;;8.50;97.30;;;;;;5016425;28;20227;-84
2021/11/06 08:14:13;;;;;;;19.43;8.33;;;8.50;97.30;;;;;;5015431;28;20600;-84
2021/11/06 08:16:38;;;;;;;15.97;7.83;;;8.50;97.30;;;;;;5016424;28;20188;-84
2021/11/06 08:19:04;;;;;;;18.83;8.50;;;8.50;97.30;;;;;;5015939;28;20193;-83
2021/11/06 08:21:29;;;;;;;20.67;9.20;;;8.50;97.30;;;;;;5032018;28;20209;-84
2021/11/06 08:23:55;;;;;;;19.87;8.60;;;8.50;97.30;;;;;;5016429;28;20263;-84
2021/11/06 08:26:20;;;;;;;21.37;8.27;;;8.60;97.30;;;;;;5016907;28;20203;-83
2021/11/06 08:28:46;;;;;;;21.30;9.23;;;8.60;97.30;;;;;;5033037;28;20225;-84
2021/11/06 08:31:11;;;;;;;20.43;8.50;;;8.70;97.30;;;;;;5016597;28;20188;-85
2021/11/06 08:33:37;;;;;;;18.50;8.87;;;8.70;97.30;;;;;;5016497;28;20272;-84
2021/11/06 08:36:03;;;;;;;18.87;7.70;;;8.80;97.30;;;;;;5015980;28;20197;-84
2021/11/06 08:38:30;;;;;;;18.33;7.67;;;8.90;97.30;;;;;;5014068;28;20178;-85
2021/11/06 08:40:55;;;;;;;20.80;8.60;;;9.00;97.30;;;;;;5031896;28;21147;-84
2021/11/06 08:43:21;;;;;;;22.27;8.93;;;9.00;97.30;;;;;;5015542;28;20464;-85
2021/11/06 08:45:47;;;;;;;17.67;8.33;;;9.10;97.30;;;;;;5015769;28;20201;-84
2021/11/06 08:48:13;;;;;;;21.10;8.77;;;9.20;97.30;;;;;;5016325;28;20288;-85
2021/11/06 08:50:40;;;;;;;16.27;7.60;;;9.10;97.30;;;;;;5033538;28;20449;-85
2021/11/06 08:53:06;;;;;;;21.30;8.00;;;9.10;97.30;;;;;;5032514;28;20447;-85
2021/11/06 08:55:32;;;;;;;17.43;7.60;;;9.10;97.30;;;;;;5015925;28;20424;-85
2021/11/06 08:57:58;;;;;;;18.30;8.03;;;9.10;97.30;;;;;;5015750;28;20421;-85
2021/11/06 09:00:32;;;;;;;20.87;8.10;;;9.10;97.30;;;;;;5016928;28;20201;-85
2021/11/06 09:03:00;;;;;;;19.10;9.70;;;9.20;97.30;;;;;;5016056;28;20440;-85
2021/11/06 09:05:26;;;;;;;16.80;8.23;;;9.20;97.30;;;;;;5014438;28;20404;-84
2021/11/06 09:07:52;;;;;;;20.27;8.67;;;9.20;97.30;;;;;;5015199;28;20427;-85
2021/11/06 09:10:19;;;;;;;17.60;7.30;;;9.20;97.30;;;;;;5021829;28;20538;-85
2021/11/06 09:12:45;;;;;;;18.87;7.07;;;9.20;97.30;;;;;;5032528;28;20296;-85
2021/11/06 09:15:11;;;;;;;21.00;7.90;;;9.20;97.30;;;;;;5017055;28;20412;-84
2021/11/06 09:17:37;;;;;;;17.23;7.73;;;9.20;97.30;;;;;;5014567;28;20416;-84
2021/11/06 09:20:05;;;;;;;15.33;7.97;;;9.30;97.30;;;;;;5031731;28;20511;-85
2021/11/06 09:22:30;;;;;;;16.43;7.33;;;9.40;97.30;;;;;;5014653;28;20437;-85
2021/11/06 09:24:56;;;;;;;17.50;7.43;;;9.50;97.30;;;;;;5013854;28;20426;-85
2021/11/06 09:27:22;;;;;;;26.30;9.00;;;9.50;97.30;;;;;;5014892;28;20185;-82
2021/11/06 09:29:48;;;;;;;15.63;7.13;;;9.60;97.30;;;;;;5015632;28;20251;-85
2021/11/06 09:32:13;;;;;;;17.27;7.17;;;9.70;97.30;;;;;;5015437;28;20236;-86
2021/11/06 09:34:40;;;;;;;19.40;7.40;;;9.70;97.30;;;;;;5015803;28;20428;-85
2021/11/06 09:37:06;;;;;;;13.97;6.70;;;9.70;97.30;;;;;;5015482;28;20184;-84
2021/11/06 09:39:34;;;;;;;18.10;8.10;;;9.70;97.30;;;;;;5015525;28;20446;-85
2021/11/06 09:42:00;;;;;;;16.67;7.63;;;9.80;97.30;;;;;;5015333;28;20431;-85
2021/11/06 09:44:28;;;;;;;12.97;6.83;;;9.90;97.30;;;;;;5014324;28;20424;-85
2021/11/06 09:46:53;;;;;;;15.70;7.37;;;9.90;97.30;;;;;;5014526;28;20789;-85
2021/11/06 09:49:19;;;;;;;17.97;7.43;;;10.00;97.30;;;;;;5013985;28;20451;-85
2021/11/06 09:51:45;;;;;;;15.53;7.50;;;10.00;97.30;;;;;;5016510;28;20200;-85
2021/11/06 09:54:11;;;;;;;18.10;6.90;;;10.00;97.30;;;;;;5016098;28;20176;-85
2021/11/06 09:56:36;;;;;;;13.90;6.93;;;10.00;97.30;;;;;;5015102;28;20185;-84
2021/11/06 09:59:02;;;;;;;13.20;6.33;;;10.00;97.30;;;;;;5011411;28;20300;-84
2021/11/06 10:01:32;;;;;;;15.60;6.73;;;10.10;97.30;;;;;;5011451;28;20201;-84
2021/11/06 10:04:01;;;;;;;12.13;6.50;;;10.20;97.30;;;;;;5010409;28;20417;-85
2021/11/06 10:06:34;;;;;;;15.00;6.10;;;10.20;97.30;;;;;;5010770;28;20448;-85
2021/11/06 10:09:11;;;;;;;16.93;7.50;;;10.20;97.30;;;;;;5011591;28;20457;-85
2021/11/06 10:12:10;;;;;;;12.13;6.53;;;10.40;97.30;;;;;;4996810;28;21049;-84
2021/11/06 10:14:45;;;;;;;19.13;8.00;;;10.60;97.30;;;;;;4994874;28;20420;-85
2021/11/06 10:17:10;;;;;;;17.73;7.10;;;10.70;97.30;;;;;;5013057;28;20793;-85
2021/11/06 10:19:49;;;;;;;16.17;6.97;;;10.60;97.30;;;;;;5014706;28;20478;-85
2021/11/06 10:22:25;;;;;;;12.23;6.37;;;10.60;97.30;;;;;;5014925;28;20280;-85
2021/11/06 10:25:04;;;;;;;11.83;6.17;;;10.80;97.30;;;;;;5013292;28;20467;-85
2021/11/06 10:27:33;;;;;;;16.13;6.17;;;10.90;97.30;;;;;;5013665;28;20411;-85
2021/11/06 10:30:25;;;;;;;12.40;6.40;;;10.80;97.30;;;;;;5013333;28;20456;-85
2021/11/06 10:33:17;;;;;;;11.50;5.90;;;10.70;97.30;;;;;;5012474;28;20857;-85
2021/11/06 10:35:48;;;;;;;13.77;6.13;;;10.70;97.30;;;;;;5000167;28;20459;-85
2021/11/06 10:38:17;;;;;;;14.30;6.30;;;10.90;97.30;;;;;;5011680;28;20431;-85
2021/11/06 10:40:59;;;;;;;12.10;6.03;;;10.90;97.30;;;;;;5012784;28;20424;-84
2021/11/06 10:43:26;;;;;;;11.23;6.07;;;11.00;97.30;;;;;;5002693;28;20538;-84
2021/11/06 10:46:01;;;;;;;8.93;5.03;;;11.00;97.30;;;;;;5011671;28;20423;-84
2021/11/06 10:48:33;;;;;;;11.40;5.93;;;11.00;97.30;;;;;;5012601;28;20505;-84
2021/11/06 10:51:06;;;;;;;11.37;6.07;;;11.20;97.30;;;;;;5012174;28;20495;-86
2021/11/06 10:53:45;;;;;;;12.57;6.50;;;11.30;97.30;;;;;;5010207;28;20424;-85
2021/11/06 10:56:13;;;;;;;13.67;6.40;;;11.40;97.30;;;;;;5009533;28;20420;-84
2021/11/06 10:58:44;;;;;;;12.60;6.20;;;11.60;97.30;;;;;;4996639;28;20436;-85
2021/11/06 11:01:17;;;;;;;12.90;5.70;;;11.50;97.30;;;;;;4992261;28;20417;-84
2021/11/06 11:03:45;;;;;;;10.13;6.03;;;11.30;97.30;;;;;;4994372;28;20428;-84
2021/11/06 11:06:27;;;;;;;10.20;5.93;;;11.20;97.30;;;;;;4994267;28;20421;-85
2021/11/06 11:08:56;;;;;;;19.80;6.30;;;11.30;97.30;;;;;;4996067;28;20476;-85
2021/11/06 11:11:24;;;;;;;14.87;5.90;;;11.40;97.30;;;;;;4995681;28;20440;-83
2021/11/06 11:14:20;;;;;;;15.00;5.30;;;11.70;97.30;;;;;;4996633;28;20423;-85
2021/11/06 11:16:50;;;;;;;13.50;5.97;;;11.60;97.30;;;;;;4971514;28;20413;-84
2021/11/06 11:19:16;;;;;;;11.33;5.73;;;11.70;97.30;;;;;;4995816;28;20825;-84
2021/11/06 11:21:43;;;;;;;18.43;6.57;;;11.70;97.30;;;;;;4995555;28;20955;-85
2021/11/06 11:24:17;;;;;;;15.57;6.30;;;11.70;97.30;;;;;;4996768;28;20445;-85
2021/11/06 11:26:46;;;;;;;14.90;6.60;;;11.60;97.30;;;;;;5007997;28;20436;-85
2021/11/06 11:29:16;;;;;;;9.33;5.53;;;11.50;97.30;;;;;;5016528;28;20471;-85
2021/11/06 11:31:42;;;;;;;10.10;4.90;;;11.60;97.30;;;;;;5015612;28;20495;-85
2021/11/06 11:34:09;;;;;;;10.70;5.23;;;11.60;97.20;;;;;;5015475;28;20428;-86
2021/11/06 11:36:37;;;;;;;8.60;4.77;;;11.60;96.80;;;;;;5033872;28;20783;-84
2021/11/06 11:39:05;;;;;;;10.07;5.20;;;11.80;96.60;;;;;;5033972;28;20416;-85
2021/11/06 11:41:46;;;;;;;17.30;5.83;;;11.70;95.80;;;;;;5030012;28;20498;-85
2021/11/06 11:44:49;;;;;;;8.50;4.97;;;11.60;96.10;;;;;;5016700;28;20432;-83
2021/11/06 11:47:31;;;;;;;10.17;4.37;;;11.90;96.10;;;;;;5015593;28;20418;-85
2021/11/06 11:49:59;;;;;;;9.47;4.63;;;12.10;95.50;;;;;;5032706;28;20463;-85
2021/11/06 11:52:39;;;;;;;14.10;4.97;;;12.20;95.30;;;;;;5016407;28;20443;-86
2021/11/06 11:55:18;;;;;;;9.87;5.10;;;12.30;95.10;;;;;;5015583;28;20412;-85
2021/11/06 11:57:51;;;;;;;9.50;4.37;;;12.40;95.30;;;;;;5015911;28;20416;-85
2021/11/06 12:00:17;;;;;;;13.00;5.30;;;12.60;95.10;;;;;;5015065;28;20678;-85
2021/11/06 12:03:00;;;;;;;8.97;5.30;;;12.70;94.80;;;;;;5015540;28;20537;-84
2021/11/06 12:05:26;;;;;;;9.20;5.10;;;12.60;94.70;;;;;;5014221;28;20177;-84
2021/11/06 12:08:10;;;;;;;6.77;4.50;;;12.60;94.30;;;;;;5015167;28;20474;-85
2021/11/06 12:10:43;;;;;;;8.00;4.80;;;12.80;95.10;;;;;;5015475;28;20422;-85
2021/11/06 12:13:28;;;;;;;9.00;5.00;;;13.00;94.20;;;;;;5015412;28;20437;-85
2021/11/06 12:15:56;;;;;;;12.43;5.00;;;13.10;93.40;;;;;;5015606;28;20411;-85
2021/11/06 12:18:55;;;;;;;10.40;4.10;;;13.30;93.40;;;;;;5015282;28;20428;-86
2021/11/06 12:21:24;;;;;;;8.97;3.87;;;13.10;91.30;;;;;;5014707;28;20424;-86
2021/11/06 12:23:57;;;;;;;7.03;4.40;;;12.90;91.70;;;;;;5013898;28;20424;-85
2021/11/06 12:26:23;;;;;;;6.30;3.83;;;12.90;92.20;;;;;;5013580;28;21015;-85
2021/11/06 12:28:51;;;;;;;11.30;4.83;;;13.00;92.00;;;;;;5013912;28;20472;-85
2021/11/06 12:31:32;;;;;;;9.13;4.67;;;13.20;92.20;;;;;;5014872;28;20720;-85
2021/11/06 12:34:01;;;;;;;7.67;4.30;;;13.40;91.80;;;;;;5014788;28;20945;-85
2021/11/06 12:36:29;;;;;;;6.87;4.37;;;13.50;91.70;;;;;;5015596;28;20408;-85
2021/11/06 12:38:57;;;;;;;9.97;4.40;;;13.50;92.70;;;;;;5014306;28;20543;-85
2021/11/06 12:41:37;;;;;;;11.40;5.40;;;13.60;91.80;;;;;;5013715;28;21193;-86
2021/11/06 12:44:06;;;;;;;9.10;3.37;;;13.70;91.00;;;;;;5013419;28;20424;-85
2021/11/06 12:46:34;;;;;;;7.03;4.30;;;13.60;90.40;;;;;;5029728;28;21026;-86
2021/11/06 12:49:04;;;;;;;5.47;3.27;;;13.50;90.20;;;;;;5013372;28;20546;-85